sensor_id;sensor_type;location;lat;lon;timestamp;pressure;altitude;pressure_sealevel;temperature;humidity
12471;BME280;36499;46.484;13.832;2023-06-14T00:02:21;92776.19;;;16.29;91.52
12471;BME280;36499;46.484;13.832;2023-06-14T00:04:48;92773.28;;;16.26;91.38
12471;BME280;36499;46.484;13.832;2023-06-14T00:07:18;92778.53;;;16.26;91.50
12471;BME280;36499;46.484;13.832;2023-06-14T00:09:45;92774.06;;;16.26;91.51
12471;BME280;36499;46.484;13.832;2023-06-14T00:12:12;92768.81;;;16.26;91.36
12471;BME280;36499;46.484;13.832;2023-06-14T00:14:41;92772.25;;;16.27;91.65
12471;BME280;36499;46.484;13.832;2023-06-14T00:17:08;92774.88;;;16.27;92.01
12471;BME280;36499;46.484;13.832;2023-06-14T00:19:35;92769.63;;;16.27;91.39
12471;BME280;36499;46.484;13.832;2023-06-14T00:22:02;92762.22;;;16.24;91.39
12471;BME280;36499;46.484;13.832;2023-06-14T00:24:29;92764.88;;;16.24;91.36
12471;BME280;36499;46.484;13.832;2023-06-14T00:26:56;92762.22;;;16.24;91.58
12471;BME280;36499;46.484;13.832;2023-06-14T00:29:23;92754.06;;;16.20;91.04
12471;BME280;36499;46.484;13.832;2023-06-14T00:31:52;92759.31;;;16.20;90.84
12471;BME280;36499;46.484;13.832;2023-06-14T00:34:19;92761.63;;;16.12;90.25
12471;BME280;36499;46.484;13.832;2023-06-14T00:36:46;92761.06;;;16.10;91.05
12471;BME280;36499;46.484;13.832;2023-06-14T00:39:13;92756.28;;;16.02;90.44
12471;BME280;36499;46.484;13.832;2023-06-14T00:41:40;92752.34;;;15.99;91.65
12471;BME280;36499;46.484;13.832;2023-06-14T00:44:07;92754.72;;;16.01;91.61
12471;BME280;36499;46.484;13.832;2023-06-14T00:46:34;92751.81;;;16.02;91.81
12471;BME280;36499;46.484;13.832;2023-06-14T00:49:03;92753.94;;;16.00;91.37
12471;BME280;36499;46.484;13.832;2023-06-14T00:51:30;92754.41;;;15.92;91.41
12471;BME280;36499;46.484;13.832;2023-06-14T00:53:57;92742.75;;;15.83;92.20
12471;BME280;36499;46.484;13.832;2023-06-14T00:56:24;92745.91;;;15.80;92.24
12471;BME280;36499;46.484;13.832;2023-06-14T00:58:53;92744.56;;;15.77;92.32
12471;BME280;36499;46.484;13.832;2023-06-14T01:01:21;92741.66;;;15.74;92.05
12471;BME280;36499;46.484;13.832;2023-06-14T01:03:48;92742.66;;;15.68;92.07
12471;BME280;36499;46.484;13.832;2023-06-14T01:06:23;92737.91;;;15.65;92.03
12471;BME280;36499;46.484;13.832;2023-06-14T01:09:06;92741.56;;;15.64;92.20
12471;BME280;36499;46.484;13.832;2023-06-14T01:11:48;92734.47;;;15.64;92.01
12471;BME280;36499;46.484;13.832;2023-06-14T01:14:17;92732.63;;;15.60;91.72
12471;BME280;36499;46.484;13.832;2023-06-14T01:16:46;92733.38;;;15.55;91.59
12471;BME280;36499;46.484;13.832;2023-06-14T01:19:16;92727.28;;;15.50;91.34
12471;BME280;36499;46.484;13.832;2023-06-14T01:21:44;92731.41;;;15.46;91.15
12471;BME280;36499;46.484;13.832;2023-06-14T01:24:18;92725.56;;;15.38;91.45
12471;BME280;36499;46.484;13.832;2023-06-14T01:26:49;92723.69;;;15.34;91.79
12471;BME280;36499;46.484;13.832;2023-06-14T01:29:22;92722.88;;;15.28;91.36
12471;BME280;36499;46.484;13.832;2023-06-14T01:31:51;92715.97;;;15.22;91.63
12471;BME280;36499;46.484;13.832;2023-06-14T01:34:20;92725.16;;;15.20;91.67
12471;BME280;36499;46.484;13.832;2023-06-14T01:36:48;92718.03;;;15.15;91.85
12471;BME280;36499;46.484;13.832;2023-06-14T01:39:18;92715.41;;;15.15;92.31
12471;BME280;36499;46.484;13.832;2023-06-14T01:41:47;92721.38;;;15.11;92.27
12471;BME280;36499;46.484;13.832;2023-06-14T01:44:18;92717.19;;;15.10;92.70
12471;BME280;36499;46.484;13.832;2023-06-14T01:46:45;92718.00;;;15.10;93.35
12471;BME280;36499;46.484;13.832;2023-06-14T01:49:13;92716.94;;;15.11;93.53
12471;BME280;36499;46.484;13.832;2023-06-14T01:51:40;92713.03;;;15.14;93.67
12471;BME280;36499;46.484;13.832;2023-06-14T01:54:07;92713.56;;;15.16;93.68
12471;BME280;36499;46.484;13.832;2023-06-14T01:56:35;92720.41;;;15.17;93.90
12471;BME280;36499;46.484;13.832;2023-06-14T01:59:02;92726.19;;;15.19;93.56
12471;BME280;36499;46.484;13.832;2023-06-14T02:01:29;92722.53;;;15.20;93.95
12471;BME280;36499;46.484;13.832;2023-06-14T02:03:56;92718.06;;;15.20;94.17
12471;BME280;36499;46.484;13.832;2023-06-14T02:06:26;92722.03;;;15.23;93.73
12471;BME280;36499;46.484;13.832;2023-06-14T02:08:53;92710.72;;;15.22;93.54
12471;BME280;36499;46.484;13.832;2023-06-14T02:11:20;92713.63;;;15.21;93.79
12471;BME280;36499;46.484;13.832;2023-06-14T02:13:49;92719.09;;;15.19;93.84
12471;BME280;36499;46.484;13.832;2023-06-14T02:16:16;92720.44;;;15.22;93.14
12471;BME280;36499;46.484;13.832;2023-06-14T02:18:43;92719.91;;;15.20;93.08
12471;BME280;36499;46.484;13.832;2023-06-14T02:21:10;92716.25;;;15.21;93.12
12471;BME280;36499;46.484;13.832;2023-06-14T02:23:38;92712.03;;;15.20;93.93
12471;BME280;36499;46.484;13.832;2023-06-14T02:26:05;92716.47;;;15.19;93.53
12471;BME280;36499;46.484;13.832;2023-06-14T02:28:32;92710.44;;;15.19;93.53
12471;BME280;36499;46.484;13.832;2023-06-14T02:31:02;92709.41;;;15.20;93.53
12471;BME280;36499;46.484;13.832;2023-06-14T02:33:29;92713.56;;;15.16;93.36
12471;BME280;36499;46.484;13.832;2023-06-14T02:35:56;92707.50;;;15.10;92.83
12471;BME280;36499;46.484;13.832;2023-06-14T02:38:24;92707.66;;;15.04;92.23
12471;BME280;36499;46.484;13.832;2023-06-14T02:40:51;92704.16;;;14.93;91.97
12471;BME280;36499;46.484;13.832;2023-06-14T02:43:18;92715.84;;;14.80;92.64
12471;BME280;36499;46.484;13.832;2023-06-14T02:45:45;92714.28;;;14.79;93.04
12471;BME280;36499;46.484;13.832;2023-06-14T02:48:14;92723.47;;;14.82;94.04
12471;BME280;36499;46.484;13.832;2023-06-14T02:50:41;92724.50;;;14.81;94.50
12471;BME280;36499;46.484;13.832;2023-06-14T02:53:08;92721.66;;;14.82;94.92
12471;BME280;36499;46.484;13.832;2023-06-14T02:55:35;92722.97;;;14.85;94.76
12471;BME280;36499;46.484;13.832;2023-06-14T02:58:05;92718.22;;;14.82;94.69
12471;BME280;36499;46.484;13.832;2023-06-14T03:00:32;92716.69;;;14.86;94.09
12471;BME280;36499;46.484;13.832;2023-06-14T03:03:00;92707.00;;;14.86;93.70
12471;BME280;36499;46.484;13.832;2023-06-14T03:05:29;92713.50;;;14.84;93.91
12471;BME280;36499;46.484;13.832;2023-06-14T03:07:56;92709.84;;;14.85;93.72
12471;BME280;36499;46.484;13.832;2023-06-14T03:10:23;92708.59;;;14.87;93.05
12471;BME280;36499;46.484;13.832;2023-06-14T03:12:54;92709.06;;;14.84;92.96
12471;BME280;36499;46.484;13.832;2023-06-14T03:15:21;92709.03;;;14.79;93.60
12471;BME280;36499;46.484;13.832;2023-06-14T03:17:50;92704.31;;;14.81;93.82
12471;BME280;36499;46.484;13.832;2023-06-14T03:20:19;92710.56;;;14.75;94.16
12471;BME280;36499;46.484;13.832;2023-06-14T03:22:47;92712.69;;;14.78;94.47
12471;BME280;36499;46.484;13.832;2023-06-14T03:25:15;92716.91;;;14.79;94.70
12471;BME280;36499;46.484;13.832;2023-06-14T03:27:42;92710.06;;;14.78;94.55
12471;BME280;36499;46.484;13.832;2023-06-14T03:30:10;92716.63;;;14.81;94.74
12471;BME280;36499;46.484;13.832;2023-06-14T03:32:37;92711.16;;;14.82;94.72
12471;BME280;36499;46.484;13.832;2023-06-14T03:35:05;92719.03;;;14.82;93.80
12471;BME280;36499;46.484;13.832;2023-06-14T03:37:32;92713.22;;;14.80;94.11
12471;BME280;36499;46.484;13.832;2023-06-14T03:40:01;92719.75;;;14.78;94.14
12471;BME280;36499;46.484;13.832;2023-06-14T03:42:31;92711.88;;;14.78;94.51
12471;BME280;36499;46.484;13.832;2023-06-14T03:44:58;92722.69;;;14.81;94.62
12471;BME280;36499;46.484;13.832;2023-06-14T03:47:25;92710.66;;;14.85;94.78
12471;BME280;36499;46.484;13.832;2023-06-14T03:49:53;92721.66;;;14.82;93.89
12471;BME280;36499;46.484;13.832;2023-06-14T03:52:20;92713.78;;;14.82;94.27
12471;BME280;36499;46.484;13.832;2023-06-14T03:54:49;92723.47;;;14.82;94.48
12471;BME280;36499;46.484;13.832;2023-06-14T03:57:18;92719.25;;;14.81;94.15
12471;BME280;36499;46.484;13.832;2023-06-14T03:59:45;92724.78;;;14.79;94.82
12471;BME280;36499;46.484;13.832;2023-06-14T04:02:13;92727.94;;;14.81;95.43
12471;BME280;36499;46.484;13.832;2023-06-14T04:04:41;92732.97;;;14.88;95.52
12471;BME280;36499;46.484;13.832;2023-06-14T04:07:09;92732.97;;;14.88;95.42
12471;BME280;36499;46.484;13.832;2023-06-14T04:09:37;92730.84;;;14.85;94.59
12471;BME280;36499;46.484;13.832;2023-06-14T04:12:06;92742.66;;;14.82;94.88
12471;BME280;36499;46.484;13.832;2023-06-14T04:14:35;92741.28;;;14.80;95.32
12471;BME280;36499;46.484;13.832;2023-06-14T04:17:03;92746.59;;;14.85;95.67
12471;BME280;36499;46.484;13.832;2023-06-14T04:19:30;92741.06;;;14.81;95.39
12471;BME280;36499;46.484;13.832;2023-06-14T04:21:57;92748.41;;;14.79;95.29
12471;BME280;36499;46.484;13.832;2023-06-14T04:24:27;92744.47;;;14.82;95.39
12471;BME280;36499;46.484;13.832;2023-06-14T04:26:59;92753.16;;;14.82;95.26
12471;BME280;36499;46.484;13.832;2023-06-14T04:29:27;92754.47;;;14.85;95.98
12471;BME280;36499;46.484;13.832;2023-06-14T04:31:56;92751.84;;;14.85;95.60
12471;BME280;36499;46.484;13.832;2023-06-14T04:34:26;92757.16;;;14.90;96.00
12471;BME280;36499;46.484;13.832;2023-06-14T04:36:56;92768.50;;;14.96;95.96
12471;BME280;36499;46.484;13.832;2023-06-14T04:39:24;92764.59;;;14.98;95.60
12471;BME280;36499;46.484;13.832;2023-06-14T04:41:51;92773.50;;;14.97;95.94
12471;BME280;36499;46.484;13.832;2023-06-14T04:44:23;92767.72;;;14.95;95.53
12471;BME280;36499;46.484;13.832;2023-06-14T04:46:57;92775.84;;;14.94;95.78
12471;BME280;36499;46.484;13.832;2023-06-14T04:49:24;92772.66;;;14.92;96.27
12471;BME280;36499;46.484;13.832;2023-06-14T04:51:53;92773.75;;;14.96;96.88
12471;BME280;36499;46.484;13.832;2023-06-14T04:54:23;92773.88;;;15.06;97.08
12471;BME280;36499;46.484;13.832;2023-06-14T04:56:51;92769.00;;;15.19;97.54
12471;BME280;36499;46.484;13.832;2023-06-14T04:59:21;92772.22;;;15.26;97.37
12471;BME280;36499;46.484;13.832;2023-06-14T05:01:49;92777.03;;;15.34;97.58
12471;BME280;36499;46.484;13.832;2023-06-14T05:04:18;92763.44;;;15.43;97.45
12471;BME280;36499;46.484;13.832;2023-06-14T05:06:47;92760.41;;;15.51;97.74
12471;BME280;36499;46.484;13.832;2023-06-14T05:09:15;92763.38;;;15.59;97.08
12471;BME280;36499;46.484;13.832;2023-06-14T05:11:42;92766.31;;;15.68;96.61
12471;BME280;36499;46.484;13.832;2023-06-14T05:14:10;92770.31;;;15.75;96.39
12471;BME280;36499;46.484;13.832;2023-06-14T05:16:37;92763.78;;;15.83;95.40
12471;BME280;36499;46.484;13.832;2023-06-14T05:19:04;92765.16;;;15.91;94.03
12471;BME280;36499;46.484;13.832;2023-06-14T05:21:33;92768.63;;;15.96;93.89
12471;BME280;36499;46.484;13.832;2023-06-14T05:24:01;92781.81;;;16.01;93.07
12471;BME280;36499;46.484;13.832;2023-06-14T05:26:28;92777.63;;;16.05;93.24
12471;BME280;36499;46.484;13.832;2023-06-14T05:28:55;92774.50;;;16.08;92.60
12471;BME280;36499;46.484;13.832;2023-06-14T05:31:23;92770.03;;;16.14;92.21
12471;BME280;36499;46.484;13.832;2023-06-14T05:33:52;92768.78;;;16.21;91.65
12471;BME280;36499;46.484;13.832;2023-06-14T05:36:19;92773.28;;;16.26;91.65
12471;BME280;36499;46.484;13.832;2023-06-14T05:38:48;92769.13;;;16.35;91.88
12471;BME280;36499;46.484;13.832;2023-06-14T05:41:16;92769.72;;;16.47;91.63
12471;BME280;36499;46.484;13.832;2023-06-14T05:43:43;92771.66;;;16.62;91.57
12471;BME280;36499;46.484;13.832;2023-06-14T05:46:10;92769.06;;;16.72;91.59
12471;BME280;36499;46.484;13.832;2023-06-14T05:48:37;92770.38;;;16.74;90.10
12471;BME280;36499;46.484;13.832;2023-06-14T05:51:05;92775.91;;;16.73;89.46
12471;BME280;36499;46.484;13.832;2023-06-14T05:53:34;92778.19;;;16.54;89.28
12471;BME280;36499;46.484;13.832;2023-06-14T05:56:03;92783.75;;;16.58;89.32
12471;BME280;36499;46.484;13.832;2023-06-14T05:58:30;92779.97;;;16.49;89.52
12471;BME280;36499;46.484;13.832;2023-06-14T06:00:57;92781.53;;;16.45;89.69
12471;BME280;36499;46.484;13.832;2023-06-14T06:03:24;92779.94;;;16.39;89.93
12471;BME280;36499;46.484;13.832;2023-06-14T06:05:54;92782.81;;;16.32;90.29
12471;BME280;36499;46.484;13.832;2023-06-14T06:08:22;92779.63;;;16.30;90.21
12471;BME280;36499;46.484;13.832;2023-06-14T06:10:49;92790.38;;;16.28;90.86
12471;BME280;36499;46.484;13.832;2023-06-14T06:13:17;92795.38;;;16.25;91.01
12471;BME280;36499;46.484;13.832;2023-06-14T06:15:44;92785.16;;;16.33;91.18
12471;BME280;36499;46.484;13.832;2023-06-14T06:18:12;92788.09;;;16.42;90.45
12471;BME280;36499;46.484;13.832;2023-06-14T06:20:39;92787.34;;;16.52;90.48
12471;BME280;36499;46.484;13.832;2023-06-14T06:23:06;92794.81;;;16.60;90.08
12471;BME280;36499;46.484;13.832;2023-06-14T06:25:33;92800.91;;;16.70;89.68
12471;BME280;36499;46.484;13.832;2023-06-14T06:28:00;92795.94;;;16.79;89.80
12471;BME280;36499;46.484;13.832;2023-06-14T06:30:29;92799.94;;;16.87;88.54
12471;BME280;36499;46.484;13.832;2023-06-14T06:32:56;92802.84;;;16.90;88.34
12471;BME280;36499;46.484;13.832;2023-06-14T06:35:23;92791.78;;;16.93;87.28
12471;BME280;36499;46.484;13.832;2023-06-14T06:37:50;92807.09;;;16.96;87.39
12471;BME280;36499;46.484;13.832;2023-06-14T06:40:17;92811.53;;;16.91;86.29
12471;BME280;36499;46.484;13.832;2023-06-14T06:42:44;92814.44;;;16.89;87.06
12471;BME280;36499;46.484;13.832;2023-06-14T06:45:11;92814.94;;;16.86;86.96
12471;BME280;36499;46.484;13.832;2023-06-14T06:47:39;92827.06;;;16.87;87.95
12471;BME280;36499;46.484;13.832;2023-06-14T06:50:08;92825.94;;;16.73;86.92
12471;BME280;36499;46.484;13.832;2023-06-14T06:52:35;92823.50;;;16.61;87.69
12471;BME280;36499;46.484;13.832;2023-06-14T06:55:02;92820.78;;;16.51;88.25
12471;BME280;36499;46.484;13.832;2023-06-14T06:57:29;92824.38;;;16.35;89.47
12471;BME280;36499;46.484;13.832;2023-06-14T06:59:57;92829.09;;;16.33;89.95
12471;BME280;36499;46.484;13.832;2023-06-14T07:02:24;92834.63;;;16.31;90.49
12471;BME280;36499;46.484;13.832;2023-06-14T07:04:53;92835.63;;;16.25;91.06
12471;BME280;36499;46.484;13.832;2023-06-14T07:07:20;92837.16;;;16.21;91.01
12471;BME280;36499;46.484;13.832;2023-06-14T07:09:47;92838.72;;;16.17;91.28
12471;BME280;36499;46.484;13.832;2023-06-14T07:12:15;92835.59;;;16.20;91.57
12471;BME280;36499;46.484;13.832;2023-06-14T07:14:42;92843.91;;;16.07;91.35
12471;BME280;36499;46.484;13.832;2023-06-14T07:17:09;92844.41;;;16.04;91.82
12471;BME280;36499;46.484;13.832;2023-06-14T07:19:36;92847.06;;;16.04;92.21
12471;BME280;36499;46.484;13.832;2023-06-14T07:22:05;92853.59;;;16.02;91.86
12471;BME280;36499;46.484;13.832;2023-06-14T07:24:32;92851.75;;;16.02;92.17
12471;BME280;36499;46.484;13.832;2023-06-14T07:27:00;92858.38;;;16.05;92.03
12471;BME280;36499;46.484;13.832;2023-06-14T07:29:28;92851.28;;;16.05;92.17
12471;BME280;36499;46.484;13.832;2023-06-14T07:31:55;92859.69;;;16.07;91.77
12471;BME280;36499;46.484;13.832;2023-06-14T07:34:22;92851.81;;;16.07;91.18
12471;BME280;36499;46.484;13.832;2023-06-14T07:36:50;92852.53;;;16.03;90.44
12471;BME280;36499;46.484;13.832;2023-06-14T07:39:18;92862.81;;;16.04;90.51
12471;BME280;36499;46.484;13.832;2023-06-14T07:41:45;92862.59;;;16.11;90.87
12471;BME280;36499;46.484;13.832;2023-06-14T07:44:12;92865.00;;;16.12;91.19
12471;BME280;36499;46.484;13.832;2023-06-14T07:46:39;92860.03;;;16.16;91.31
12471;BME280;36499;46.484;13.832;2023-06-14T07:49:06;92861.09;;;16.20;91.06
12471;BME280;36499;46.484;13.832;2023-06-14T07:51:33;92857.19;;;16.22;90.43
12471;BME280;36499;46.484;13.832;2023-06-14T07:54:00;92862.19;;;16.24;90.26
12471;BME280;36499;46.484;13.832;2023-06-14T07:56:29;92852.19;;;16.26;90.33
12471;BME280;36499;46.484;13.832;2023-06-14T07:58:56;92859.34;;;16.30;90.87
12471;BME280;36499;46.484;13.832;2023-06-14T08:01:23;92854.88;;;16.36;90.97
12471;BME280;36499;46.484;13.832;2023-06-14T08:03:51;92864.41;;;16.42;90.65
12471;BME280;36499;46.484;13.832;2023-06-14T08:06:18;92862.06;;;16.46;89.94
12471;BME280;36499;46.484;13.832;2023-06-14T08:08:45;92867.88;;;16.48;89.37
12471;BME280;36499;46.484;13.832;2023-06-14T08:11:12;92869.16;;;16.45;89.26
12471;BME280;36499;46.484;13.832;2023-06-14T08:13:41;92871.47;;;16.37;89.62
12471;BME280;36499;46.484;13.832;2023-06-14T08:16:08;92876.72;;;16.37;89.47
12471;BME280;36499;46.484;13.832;2023-06-14T08:18:36;92872.53;;;16.36;89.63
12471;BME280;36499;46.484;13.832;2023-06-14T08:21:03;92881.44;;;16.29;89.76
12471;BME280;36499;46.484;13.832;2023-06-14T08:23:30;92880.38;;;16.30;89.60
12471;BME280;36499;46.484;13.832;2023-06-14T08:25:58;92880.09;;;16.27;89.13
12471;BME280;36499;46.484;13.832;2023-06-14T08:28:27;92876.38;;;16.23;89.27
12471;BME280;36499;46.484;13.832;2023-06-14T08:30:55;92882.91;;;16.15;90.37
12471;BME280;36499;46.484;13.832;2023-06-14T08:33:22;92886.06;;;16.17;90.30
12471;BME280;36499;46.484;13.832;2023-06-14T08:35:49;92886.06;;;16.17;90.27
12471;BME280;36499;46.484;13.832;2023-06-14T08:38:16;92892.13;;;16.18;90.67
12471;BME280;36499;46.484;13.832;2023-06-14T08:40:48;92889.75;;;16.16;90.88
12471;BME280;36499;46.484;13.832;2023-06-14T08:43:17;92890.28;;;16.18;91.05
12471;BME280;36499;46.484;13.832;2023-06-14T08:45:46;92897.19;;;16.24;91.36
12471;BME280;36499;46.484;13.832;2023-06-14T08:48:18;92896.91;;;16.26;91.14
12471;BME280;36499;46.484;13.832;2023-06-14T08:50:48;92905.09;;;16.29;91.20
12471;BME280;36499;46.484;13.832;2023-06-14T08:53:16;92901.47;;;16.36;92.09
12471;BME280;36499;46.484;13.832;2023-06-14T08:55:46;92902.28;;;16.41;91.88
12471;BME280;36499;46.484;13.832;2023-06-14T08:58:15;92901.59;;;16.51;91.41
12471;BME280;36499;46.484;13.832;2023-06-14T09:00:43;92903.72;;;16.54;91.01
12471;BME280;36499;46.484;13.832;2023-06-14T09:03:11;92902.19;;;16.58;90.96
12471;BME280;36499;46.484;13.832;2023-06-14T09:05:41;92900.59;;;16.57;90.69
12471;BME280;36499;46.484;13.832;2023-06-14T09:08:09;92907.47;;;16.58;89.94
12471;BME280;36499;46.484;13.832;2023-06-14T09:10:36;92910.66;;;16.65;89.13
12471;BME280;36499;46.484;13.832;2023-06-14T09:13:04;92902.25;;;16.68;89.36
12471;BME280;36499;46.484;13.832;2023-06-14T09:15:31;92902.53;;;16.71;88.22
12471;BME280;36499;46.484;13.832;2023-06-14T09:18:01;92901.25;;;16.79;88.99
12471;BME280;36499;46.484;13.832;2023-06-14T09:20:30;92905.50;;;16.80;88.69
12471;BME280;36499;46.484;13.832;2023-06-14T09:23:00;92911.25;;;16.77;87.91
12471;BME280;36499;46.484;13.832;2023-06-14T09:25:27;92909.16;;;16.79;88.48
12471;BME280;36499;46.484;13.832;2023-06-14T09:27:54;92909.72;;;16.81;88.92
12471;BME280;36499;46.484;13.832;2023-06-14T09:30:21;92916.31;;;16.84;88.08
12471;BME280;36499;46.484;13.832;2023-06-14T09:32:49;92925.25;;;16.83;87.48
12471;BME280;36499;46.484;13.832;2023-06-14T09:35:18;92914.47;;;16.84;87.41
12471;BME280;36499;46.484;13.832;2023-06-14T09:37:45;92923.97;;;16.85;87.85
12471;BME280;36499;46.484;13.832;2023-06-14T09:40:20;92927.44;;;16.96;88.91
12471;BME280;36499;46.484;13.832;2023-06-14T09:42:47;92921.19;;;17.07;90.27
12471;BME280;36499;46.484;13.832;2023-06-14T09:45:15;92931.50;;;17.18;90.36
12471;BME280;36499;46.484;13.832;2023-06-14T09:47:48;92932.88;;;17.31;90.36
12471;BME280;36499;46.484;13.832;2023-06-14T09:50:16;92931.88;;;17.42;90.06
12471;BME280;36499;46.484;13.832;2023-06-14T09:52:44;92926.38;;;17.49;89.03
12471;BME280;36499;46.484;13.832;2023-06-14T09:55:16;92929.09;;;17.64;89.04
12471;BME280;36499;46.484;13.832;2023-06-14T09:57:47;92925.44;;;17.80;89.11
12471;BME280;36499;46.484;13.832;2023-06-14T10:00:17;92924.41;;;17.96;88.81
12471;BME280;36499;46.484;13.832;2023-06-14T10:02:50;92923.34;;;18.07;87.20
12471;BME280;36499;46.484;13.832;2023-06-14T10:05:21;92932.59;;;18.15;85.79
12471;BME280;36499;46.484;13.832;2023-06-14T10:07:55;92923.13;;;18.14;85.40
12471;BME280;36499;46.484;13.832;2023-06-14T10:10:28;92922.31;;;18.23;85.34
12471;BME280;36499;46.484;13.832;2023-06-14T10:12:55;92927.34;;;18.30;85.76
12471;BME280;36499;46.484;13.832;2023-06-14T10:15:39;92925.50;;;18.31;83.82
12471;BME280;36499;46.484;13.832;2023-06-14T10:18:19;92921.81;;;18.37;83.31
12471;BME280;36499;46.484;13.832;2023-06-14T10:21:04;92920.25;;;18.41;82.08
12471;BME280;36499;46.484;13.832;2023-06-14T10:23:38;92923.91;;;18.50;83.76
12471;BME280;36499;46.484;13.832;2023-06-14T10:26:17;92920.28;;;18.56;82.28
12471;BME280;36499;46.484;13.832;2023-06-14T10:28:57;92918.38;;;18.46;81.13
12471;BME280;36499;46.484;13.832;2023-06-14T10:31:41;92915.75;;;18.46;81.33
12471;BME280;36499;46.484;13.832;2023-06-14T10:34:09;92917.38;;;18.52;79.56
12471;BME280;36499;46.484;13.832;2023-06-14T10:36:37;92917.88;;;18.54;78.93
12471;BME280;36499;46.484;13.832;2023-06-14T10:39:06;92918.13;;;18.58;79.69
12471;BME280;36499;46.484;13.832;2023-06-14T10:41:38;92921.03;;;18.61;78.59
12471;BME280;36499;46.484;13.832;2023-06-14T10:44:38;92923.69;;;18.66;79.25
12471;BME280;36499;46.484;13.832;2023-06-14T10:47:10;92918.66;;;18.75;78.93
12471;BME280;36499;46.484;13.832;2023-06-14T10:49:40;92922.88;;;18.86;79.33
12471;BME280;36499;46.484;13.832;2023-06-14T10:52:12;92914.91;;;18.91;77.99
12471;BME280;36499;46.484;13.832;2023-06-14T10:55:05;92909.38;;;18.88;76.37
12471;BME280;36499;46.484;13.832;2023-06-14T10:57:38;92911.22;;;18.87;77.09
12471;BME280;36499;46.484;13.832;2023-06-14T11:00:07;92911.50;;;18.91;76.24
12471;BME280;36499;46.484;13.832;2023-06-14T11:03:31;92909.66;;;18.86;75.31
12471;BME280;36499;46.484;13.832;2023-06-14T11:06:14;92908.59;;;18.87;75.34
12471;BME280;36499;46.484;13.832;2023-06-14T11:12:01;92902.50;;;18.97;75.33
12471;BME280;36499;46.484;13.832;2023-06-14T11:14:31;92904.59;;;18.95;74.86
12471;BME280;36499;46.484;13.832;2023-06-14T11:16:59;92900.66;;;18.87;73.77
12471;BME280;36499;46.484;13.832;2023-06-14T11:19:26;92879.81;;;18.81;74.88
12471;BME280;36499;46.484;13.832;2023-06-14T11:21:54;92880.31;;;18.88;75.09
12471;BME280;36499;46.484;13.832;2023-06-14T11:24:21;92883.50;;;18.85;73.17
12471;BME280;36499;46.484;13.832;2023-06-14T11:26:49;92886.44;;;18.78;73.84
12471;BME280;36499;46.484;13.832;2023-06-14T11:29:16;92875.06;;;18.78;73.16
12471;BME280;36499;46.484;13.832;2023-06-14T11:31:45;92877.16;;;18.81;73.12
12471;BME280;36499;46.484;13.832;2023-06-14T11:34:12;92878.22;;;18.80;73.19
12471;BME280;36499;46.484;13.832;2023-06-14T11:36:40;92874.56;;;18.76;73.38
12471;BME280;36499;46.484;13.832;2023-06-14T11:39:07;92866.88;;;18.74;74.18
12471;BME280;36499;46.484;13.832;2023-06-14T11:41:40;92862.38;;;18.80;74.11
12471;BME280;36499;46.484;13.832;2023-06-14T11:44:07;92867.41;;;18.86;73.24
12471;BME280;36499;46.484;13.832;2023-06-14T11:46:35;92859.44;;;18.96;72.60
12471;BME280;36499;46.484;13.832;2023-06-14T11:49:04;92853.56;;;19.14;72.93
12471;BME280;36499;46.484;13.832;2023-06-14T11:51:34;92856.69;;;19.22;72.27
12471;BME280;36499;46.484;13.832;2023-06-14T11:54:01;92850.09;;;19.19;72.25
12471;BME280;36499;46.484;13.832;2023-06-14T11:56:29;92849.59;;;19.17;70.88
12471;BME280;36499;46.484;13.832;2023-06-14T11:58:57;92850.94;;;19.09;72.06
12471;BME280;36499;46.484;13.832;2023-06-14T12:01:25;92844.00;;;19.24;73.42
12471;BME280;36499;46.484;13.832;2023-06-14T12:03:54;92836.31;;;19.32;72.28
12471;BME280;36499;46.484;13.832;2023-06-14T12:06:30;92837.50;;;19.60;71.17
12471;BME280;36499;46.484;13.832;2023-06-14T12:09:04;92835.06;;;20.13;71.57
12471;BME280;36499;46.484;13.832;2023-06-14T12:11:35;92837.41;;;20.48;69.86
12471;BME280;36499;46.484;13.832;2023-06-14T12:14:04;92824.91;;;20.53;64.95
12471;BME280;36499;46.484;13.832;2023-06-14T12:16:32;92827.84;;;20.52;65.04
12471;BME280;36499;46.484;13.832;2023-06-14T12:19:12;92826.28;;;20.75;66.52
12471;BME280;36499;46.484;13.832;2023-06-14T12:21:42;92827.28;;;21.08;67.23
12471;BME280;36499;46.484;13.832;2023-06-14T12:24:11;92826.78;;;21.29;65.22
12471;BME280;36499;46.484;13.832;2023-06-14T12:26:39;92821.13;;;21.54;63.47
12471;BME280;36499;46.484;13.832;2023-06-14T12:29:07;92817.69;;;21.73;61.04
12471;BME280;36499;46.484;13.832;2023-06-14T12:31:34;92812.47;;;21.86;62.63
12471;BME280;36499;46.484;13.832;2023-06-14T12:34:02;92814.41;;;21.99;61.00
12471;BME280;36499;46.484;13.832;2023-06-14T12:36:29;92811.47;;;22.01;58.56
12471;BME280;36499;46.484;13.832;2023-06-14T12:38:58;92815.63;;;22.07;57.54
12471;BME280;36499;46.484;13.832;2023-06-14T12:41:25;92819.41;;;22.20;59.58
12471;BME280;36499;46.484;13.832;2023-06-14T12:43:52;92813.91;;;22.30;56.36
12471;BME280;36499;46.484;13.832;2023-06-14T12:46:20;92809.34;;;22.49;56.96
12471;BME280;36499;46.484;13.832;2023-06-14T12:48:47;92806.94;;;22.66;56.83
12471;BME280;36499;46.484;13.832;2023-06-14T12:51:14;92803.75;;;22.51;55.03
12471;BME280;36499;46.484;13.832;2023-06-14T12:53:41;92792.94;;;22.61;57.42
12471;BME280;36499;46.484;13.832;2023-06-14T12:56:11;92799.59;;;22.77;59.02
12471;BME280;36499;46.484;13.832;2023-06-14T12:58:38;92808.34;;;22.91;57.25
12471;BME280;36499;46.484;13.832;2023-06-14T13:01:05;92802.53;;;22.75;55.06
12471;BME280;36499;46.484;13.832;2023-06-14T13:03:32;92802.97;;;22.82;55.99